Time;durP1;ratioP1;P1;durP2;ratioP2;P2;SDS_P1;SDS_P2;PMS_P1;PMS_P2;Temp;Humidity;BMP_temperature;BMP_pressure;BME280_temperature;BME280_humidity;BME280_pressure;Samples;Min_cycle;Max_cycle;Signal;HPM_P1;HPM_P2
2022/01/10 00:00:46;;;;;;;6.40;3.90;;;;;;;1.91;82.22;94999.63;4826271;29;20058;-50
2022/01/10 00:03:14;;;;;;;5.40;3.45;;;;;;;1.83;82.83;95007.25;4823907;29;20047;-51
2022/01/10 00:05:41;;;;;;;6.25;3.80;;;;;;;1.67;83.77;95007.88;4822547;29;20111;-50
2022/01/10 00:08:08;;;;;;;7.22;3.83;;;;;;;1.48;85.02;95008.75;4821614;29;20043;-50
2022/01/10 00:10:35;;;;;;;6.93;3.63;;;;;;;0.80;87.40;95012.16;4821048;29;20141;-48
2022/01/10 00:13:02;;;;;;;7.43;3.88;;;;;;;0.62;89.31;95013.78;4822351;29;20057;-50
2022/01/10 00:15:29;;;;;;;5.65;3.45;;;;;;;1.43;84.82;95008.88;4827281;29;20074;-51
2022/01/10 00:17:56;;;;;;;10.77;6.75;;;;;;;2.03;81.89;95013.25;4823543;29;20420;-48
2022/01/10 00:20:24;;;;;;;7.40;3.97;;;;;;;1.74;83.11;95014.38;4825034;29;20048;-46
2022/01/10 00:22:51;;;;;;;7.57;4.35;;;;;;;2.08;81.08;95010.44;4827739;29;20068;-49
2022/01/10 00:25:21;;;;;;;6.75;3.90;;;;;;;1.61;84.60;95012.50;4821022;29;20089;-48
2022/01/10 00:27:51;;;;;;;5.75;3.70;;;;;;;0.99;87.39;95010.22;4821014;29;20061;-48
2022/01/10 00:30:19;;;;;;;8.30;4.07;;;;;;;1.85;82.58;95009.59;4821469;29;20054;-50
2022/01/10 00:32:46;;;;;;;6.05;3.80;;;;;;;1.64;84.18;95007.38;4835604;29;20057;-48
2022/01/10 00:35:13;;;;;;;7.32;3.78;;;;;;;1.04;85.94;95012.78;4830224;29;20054;-48
2022/01/10 00:37:43;;;;;;;9.60;5.18;;;;;;;1.59;83.40;95007.50;4840292;29;20042;-48
2022/01/10 00:40:12;;;;;;;7.43;3.92;;;;;;;1.51;84.67;95000.16;4830935;29;20082;-48
2022/01/10 00:42:41;;;;;;;6.57;3.42;;;;;;;0.73;87.92;95006.41;4822141;29;20416;-49
2022/01/10 00:45:20;;;;;;;8.90;3.88;;;;;;;1.60;84.01;95006.38;4829900;29;20050;-48
2022/01/10 00:47:48;;;;;;;8.98;4.18;;;;;;;0.64;88.46;95001.75;4829630;29;20093;-48
2022/01/10 00:50:16;;;;;;;6.03;3.72;;;;;;;1.27;86.92;95004.91;4820048;29;20084;-49
2022/01/10 00:52:43;;;;;;;9.13;4.35;;;;;;;0.85;87.72;95009.41;4821639;29;20410;-51
2022/01/10 00:55:11;;;;;;;9.18;4.88;;;;;;;1.17;86.88;95009.34;4824083;29;20103;-49
2022/01/10 00:57:39;;;;;;;8.70;4.88;;;;;;;1.23;85.97;95007.38;4834839;29;20419;-51
2022/01/10 01:00:09;;;;;;;8.68;4.82;;;;;;;1.11;87.57;95023.84;4834750;29;20453;-51
2022/01/10 01:02:37;;;;;;;7.70;4.20;;;;;;;1.43;84.91;95010.72;4834170;29;20061;-47
2022/01/10 01:05:08;;;;;;;8.65;4.68;;;;;;;1.00;87.02;95029.63;4843589;29;20053;-51
2022/01/10 01:07:36;;;;;;;7.28;4.55;;;;;;;1.45;85.23;95025.34;4841628;29;20054;-51
2022/01/10 01:12:57;;;;;;;9.40;4.70;;;;;;;0.99;87.74;95031.53;4825024;29;20064;-49
2022/01/10 01:15:31;;;;;;;9.05;4.53;;;;;;;1.14;87.62;95030.47;4824027;29;20063;-48
2022/01/10 01:18:16;;;;;;;6.85;4.43;;;;;;;1.32;86.15;95031.47;4824635;29;20050;-50
2022/01/10 01:20:45;;;;;;;8.82;4.65;;;;;;;1.69;83.57;95035.81;4838273;29;20052;-50
2022/01/10 01:26:03;;;;;;;7.20;4.20;;;;;;;1.27;86.62;95055.53;4842883;29;20054;-44
2022/01/10 01:28:31;;;;;;;9.80;5.13;;;;;;;1.45;84.86;95057.34;4842691;29;20066;-45
2022/01/10 01:30:58;;;;;;;9.50;5.13;;;;;;;1.15;87.52;95062.13;4841889;29;20122;-45
2022/01/10 01:33:26;;;;;;;8.23;5.00;;;;;;;1.78;83.39;95059.91;4841773;29;20065;-45
2022/01/10 01:35:54;;;;;;;7.90;4.88;;;;;;;1.84;83.24;95059.50;4841867;29;20057;-43
2022/01/10 01:38:22;;;;;;;7.88;4.70;;;;;;;1.07;87.03;95070.81;4809139;29;20054;-48
2022/01/10 01:40:57;;;;;;;7.55;4.20;;;;;;;1.21;85.74;95078.81;4828380;29;20068;-43
2022/01/10 01:43:24;;;;;;;7.55;4.82;;;;;;;1.70;84.15;95068.59;4842457;29;20056;-49
2022/01/10 01:45:51;;;;;;;8.95;5.18;;;;;;;1.97;82.56;95075.78;4841498;29;20102;-49
2022/01/10 01:48:18;;;;;;;9.43;5.30;;;;;;;2.05;80.84;95075.09;4842133;29;20050;-46
2022/01/10 01:50:45;;;;;;;8.27;5.25;;;;;;;1.80;83.22;95077.19;4841257;29;20042;-45
2022/01/10 01:53:13;;;;;;;7.65;4.60;;;;;;;2.00;82.47;95081.31;4841615;29;20542;-48
2022/01/10 01:55:40;;;;;;;9.18;4.88;;;;;;;2.14;80.86;95089.31;4841531;29;20508;-44
2022/01/10 01:58:07;;;;;;;7.68;4.35;;;;;;;1.62;83.89;95094.06;4828863;29;20596;-49
2022/01/10 02:00:34;;;;;;;9.02;4.57;;;;;;;1.80;83.60;95103.06;4839293;29;20470;-45
2022/01/10 02:03:02;;;;;;;7.63;4.50;;;;;;;1.62;84.56;95100.19;4841253;29;20080;-45
2022/01/10 02:05:31;;;;;;;9.18;4.43;;;;;;;0.70;88.57;95104.41;4840712;29;20054;-48
2022/01/10 02:07:59;;;;;;;7.90;4.60;;;;;;;1.52;84.88;95100.38;4836745;29;20519;-53
2022/01/10 02:10:26;;;;;;;8.95;5.10;;;;;;;1.18;87.01;95108.72;4843123;29;20412;-45
2022/01/10 02:12:54;;;;;;;9.38;4.75;;;;;;;0.81;88.65;95106.91;4824439;29;20099;-44
2022/01/10 02:15:32;;;;;;;7.35;4.63;;;;;;;0.63;89.69;95109.31;4838233;29;20532;-46
2022/01/10 02:18:03;;;;;;;7.55;4.35;;;;;;;0.98;88.52;95107.19;4825730;29;20049;-44
2022/01/10 02:20:31;;;;;;;8.25;4.53;;;;;;;1.48;85.33;95109.28;4841636;29;20058;-47
2022/01/10 02:22:58;;;;;;;7.88;4.63;;;;;;;0.79;89.00;95119.75;4841307;29;20057;-49
2022/01/10 02:25:37;;;;;;;7.40;4.22;;;;;;;1.51;85.65;95122.00;4834717;29;20043;-44
2022/01/10 02:28:05;;;;;;;7.43;5.00;;;;;;;1.41;86.19;95130.97;4824782;29;20054;-45
2022/01/10 02:30:32;;;;;;;7.57;5.00;;;;;;;1.78;83.89;95129.25;4835916;29;20071;-45
2022/01/10 02:33:01;;;;;;;7.53;4.78;;;;;;;2.00;82.99;95125.88;4841511;29;20058;-43
2022/01/10 02:35:38;;;;;;;9.32;4.95;;;;;;;2.09;81.71;95134.78;4855968;29;20073;-43
2022/01/10 02:38:05;;;;;;;10.07;5.60;;;;;;;2.31;80.81;95136.75;4841508;29;20120;-50
2022/01/10 02:40:33;;;;;;;9.25;4.88;;;;;;;2.22;81.00;95133.19;4838711;29;20385;-46
2022/01/10 02:43:01;;;;;;;9.27;5.28;;;;;;;2.15;81.40;95144.28;4841690;29;20428;-49
2022/01/10 02:45:28;;;;;;;9.70;4.97;;;;;;;2.13;82.15;95145.66;4841558;29;20046;-45
2022/01/10 02:47:55;;;;;;;8.35;5.00;;;;;;;2.19;81.07;95147.13;4839386;29;20056;-43
2022/01/10 02:50:22;;;;;;;8.88;4.65;;;;;;;1.33;86.27;95153.78;4840835;29;20125;-47
2022/01/10 02:52:50;;;;;;;9.73;5.00;;;;;;;1.16;86.97;95164.16;4851669;29;20103;-49
2022/01/10 02:55:17;;;;;;;8.73;4.72;;;;;;;1.21;86.21;95164.09;4822274;29;20061;-50
2022/01/10 02:57:45;;;;;;;9.30;5.07;;;;;;;1.55;84.65;95166.44;4822394;29;20125;-47
2022/01/10 03:00:19;;;;;;;9.45;4.80;;;;;;;1.05;87.55;95168.88;4822578;29;20069;-50
2022/01/10 03:02:49;;;;;;;;;;;;;;;0.67;90.03;95176.09;4840848;29;20508;-44
2022/01/10 03:05:18;;;;;;;6.78;4.47;;;;;;;0.52;90.49;95171.78;4840461;29;20371;-44
2022/01/10 03:07:47;;;;;;;9.38;5.03;;;;;;;0.40;91.53;95174.84;4840105;29;20577;-43
2022/01/10 03:10:14;;;;;;;10.52;5.53;;;;;;;0.38;92.22;95178.88;4839334;29;20144;-45
2022/01/10 03:12:42;;;;;;;9.73;4.68;;;;;;;0.31;92.62;95179.22;4840189;29;20379;-46
2022/01/10 03:15:12;;;;;;;8.63;4.53;;;;;;;0.31;92.66;95179.22;4824588;29;20152;-47
2022/01/10 03:17:39;;;;;;;7.28;4.75;;;;;;;0.36;92.52;95181.03;4839309;29;20070;-49
2022/01/10 03:20:08;;;;;;;10.57;5.18;;;;;;;1.06;88.63;95191.75;4839406;29;20457;-50
2022/01/10 03:22:35;;;;;;;9.27;4.93;;;;;;;1.32;87.39;95186.81;4839788;29;20060;-50
2022/01/10 03:25:04;;;;;;;9.63;5.50;;;;;;;0.42;91.62;95191.31;4841121;29;20508;-47
2022/01/10 03:27:33;;;;;;;8.02;4.70;;;;;;;0.92;90.35;95205.00;4836826;29;20133;-49
2022/01/10 03:30:01;;;;;;;8.02;5.28;;;;;;;1.45;86.36;95201.28;4828746;29;20069;-46
2022/01/10 03:32:28;;;;;;;8.88;5.57;;;;;;;1.32;86.61;95202.03;4839771;29;20090;-46
2022/01/10 03:35:04;;;;;;;9.10;5.47;;;;;;;1.60;85.21;95209.03;4839834;29;20061;-50
2022/01/10 03:37:31;;;;;;;11.50;6.95;;;;;;;1.67;83.95;95208.63;4830937;29;20102;-44
2022/01/10 03:39:58;;;;;;;9.77;5.40;;;;;;;1.51;86.12;95209.97;4839126;29;20081;-46
2022/01/10 03:42:25;;;;;;;9.70;5.38;;;;;;;1.88;83.30;95203.72;4839791;29;20125;-47
2022/01/10 03:44:52;;;;;;;10.43;5.63;;;;;;;1.91;82.94;95203.13;4838708;29;20050;-51
2022/01/10 03:47:21;;;;;;;10.48;5.70;;;;;;;0.94;87.55;95210.03;4821328;29;20061;-47
2022/01/10 03:49:48;;;;;;;8.95;5.45;;;;;;;1.63;84.83;95208.44;4836012;29;20054;-44
2022/01/10 03:52:16;;;;;;;12.82;5.43;;;;;;;1.63;83.91;95210.31;4838944;29;20137;-48
2022/01/10 03:54:43;;;;;;;8.75;5.53;;;;;;;1.32;85.76;95210.00;4840771;29;20050;-48
2022/01/10 03:57:11;;;;;;;9.63;5.60;;;;;;;0.87;88.67;95217.59;4840343;29;20103;-50
2022/01/10 03:59:39;;;;;;;9.35;5.60;;;;;;;0.89;89.71;95215.47;4838929;29;20125;-44
2022/01/10 04:02:06;;;;;;;9.82;6.45;;;;;;;1.76;84.58;95222.09;4838482;29;20048;-45
2022/01/10 04:04:36;;;;;;;10.65;5.57;;;;;;;1.81;84.25;95230.78;4839331;29;20110;-48
2022/01/10 04:07:04;;;;;;;10.77;5.72;;;;;;;1.77;83.91;95229.00;4839358;29;20046;-48
2022/01/10 04:09:31;;;;;;;14.43;6.18;;;;;;;1.31;86.39;95232.44;4837660;29;20056;-46
2022/01/10 04:11:58;;;;;;;11.90;6.10;;;;;;;1.58;85.29;95227.19;4840582;29;20064;-50
2022/01/10 04:14:25;;;;;;;8.02;5.40;;;;;;;0.91;88.02;95230.06;4839855;29;20046;-47
2022/01/10 04:16:52;;;;;;;8.82;5.57;;;;;;;1.15;87.81;95229.97;4840616;29;20053;-49
2022/01/10 04:19:19;;;;;;;9.40;5.68;;;;;;;0.73;90.22;95238.06;4837830;29;20133;-48
2022/01/10 04:21:46;;;;;;;10.45;5.90;;;;;;;1.20;88.56;95252.31;4839485;29;20099;-45
2022/01/10 04:24:15;;;;;;;10.45;5.57;;;;;;;1.62;85.24;95246.03;4832585;29;20416;-44
2022/01/10 04:26:44;;;;;;;8.98;5.65;;;;;;;0.98;87.99;95255.56;4821144;29;20467;-48
2022/01/10 04:29:14;;;;;;;11.10;5.50;;;;;;;0.64;91.36;95249.31;4832228;29;20050;-46
2022/01/10 04:31:41;;;;;;;8.38;5.07;;;;;;;0.61;90.39;95255.22;4842314;29;20056;-45
2022/01/10 04:34:08;;;;;;;10.52;6.32;;;;;;;0.51;91.56;95258.00;4844452;29;20050;-46
2022/01/10 04:36:35;;;;;;;9.00;5.15;;;;;;;0.96;89.15;95258.50;4844128;29;20046;-44
2022/01/10 04:39:03;;;;;;;9.63;6.05;;;;;;;0.54;91.09;95260.09;4829864;29;20043;-51
2022/01/10 04:41:32;;;;;;;9.27;5.85;;;;;;;1.20;87.81;95278.94;4842842;29;20485;-48
2022/01/10 04:44:00;;;;;;;10.35;6.03;;;;;;;0.43;92.09;95277.28;4828955;29;20161;-49
2022/01/10 04:46:27;;;;;;;10.90;6.07;;;;;;;0.46;92.45;95277.50;4824233;29;20057;-51
2022/01/10 04:48:54;;;;;;;9.88;5.97;;;;;;;0.15;94.01;95277.03;4837834;29;20050;-49
2022/01/10 04:51:21;;;;;;;8.77;5.53;;;;;;;0.20;94.20;95294.81;4824355;29;20047;-50
2022/01/10 04:53:53;;;;;;;9.82;5.55;;;;;;;0.10;94.94;95285.06;4843686;29;20564;-50
2022/01/10 04:56:20;;;;;;;11.88;5.95;;;;;;;0.21;94.70;95294.53;4843772;29;20053;-45
2022/01/10 04:58:51;;;;;;;10.82;6.25;;;;;;;0.22;94.45;95293.44;4826562;29;20404;-49
2022/01/10 05:01:20;;;;;;;11.15;6.63;;;;;;;0.80;92.18;95299.72;4824431;29;20115;-48
2022/01/10 05:03:50;;;;;;;13.68;6.78;;;;;;;0.40;93.21;95296.47;4823984;29;20057;-44
2022/01/10 05:06:17;;;;;;;11.45;6.10;;;;;;;1.34;89.17;95306.47;4824502;29;20072;-48
2022/01/10 05:08:44;;;;;;;14.38;6.82;;;;;;;0.64;91.40;95310.56;4834332;29;20503;-44
2022/01/10 05:11:16;;;;;;;10.10;6.43;;;;;;;0.92;91.42;95310.75;4827330;29;20073;-44
2022/01/10 05:13:44;;;;;;;11.98;6.63;;;;;;;1.04;89.71;95313.81;4831220;29;20104;-46
2022/01/10 05:16:12;;;;;;;13.63;7.38;;;;;;;1.05;90.63;95318.06;4838173;29;20075;-44
2022/01/10 05:18:40;;;;;;;12.95;7.25;;;;;;;1.05;90.91;95320.72;4841478;29;20125;-46
2022/01/10 05:21:07;;;;;;;12.50;7.05;;;;;;;0.31;93.08;95322.09;4838708;29;20420;-43
2022/01/10 05:23:34;;;;;;;11.57;7.40;;;;;;;0.25;94.45;95331.22;4841646;29;20227;-49
2022/01/10 05:26:01;;;;;;;10.75;6.57;;;;;;;0.62;93.22;95334.03;4843380;29;20052;-44
2022/01/10 05:28:28;;;;;;;10.73;7.10;;;;;;;0.26;94.40;95335.44;4843026;29;20046;-44
2022/01/10 05:30:55;;;;;;;11.63;7.25;;;;;;;0.83;92.71;95339.88;4832642;29;20093;-51
2022/01/10 05:33:28;;;;;;;;;;;;;;;0.70;92.31;95338.69;4831914;29;20049;-44
2022/01/10 05:35:55;;;;;;;13.80;7.50;;;;;;;0.19;94.30;95335.78;4842781;29;19933;-49
2022/01/10 05:38:22;;;;;;;12.32;7.47;;;;;;;0.15;95.27;95340.88;4844474;29;20057;-52
2022/01/10 05:40:49;;;;;;;15.23;7.80;;;;;;;0.16;95.43;95355.78;4840301;29;20534;-50
2022/01/10 05:43:16;;;;;;;12.35;7.95;;;;;;;0.36;94.44;95354.00;4842437;29;20146;-45
2022/01/10 05:45:46;;;;;;;16.65;7.68;;;;;;;0.32;95.11;95355.63;4841679;29;20070;-45
2022/01/10 05:48:21;;;;;;;14.57;7.70;;;;;;;1.12;90.60;95355.78;4840774;29;20057;-48
2022/01/10 05:50:52;;;;;;;14.77;7.95;;;;;;;0.51;93.29;95355.69;4840951;29;20129;-46
2022/01/10 05:53:20;;;;;;;13.65;8.07;;;;;;;0.79;91.54;95368.16;4840897;29;20061;-45
2022/01/10 05:55:47;;;;;;;13.20;7.90;;;;;;;0.45;93.39;95376.25;4841246;29;20055;-49
2022/01/10 05:58:16;;;;;;;10.88;7.47;;;;;;;0.28;94.40;95378.53;4841070;29;20056;-47
2022/01/10 06:00:44;;;;;;;14.85;8.18;;;;;;;0.37;94.84;95380.31;4828336;29;20054;-48
2022/01/10 06:03:11;;;;;;;11.07;7.70;;;;;;;0.65;93.66;95392.03;4837146;29;20110;-44
2022/01/10 06:05:46;;;;;;;12.45;7.47;;;;;;;0.32;94.33;95403.50;4841079;29;20384;-50
2022/01/10 06:08:13;;;;;;;13.18;7.38;;;;;;;0.15;95.39;95401.25;4840070;29;20050;-44
2022/01/10 06:10:42;;;;;;;12.98;8.20;;;;;;;0.06;96.21;95410.91;4840326;29;20507;-44
2022/01/10 06:13:18;;;;;;;14.35;8.30;;;;;;;0.34;95.43;95412.00;4840633;29;20050;-47
2022/01/10 06:15:45;;;;;;;13.52;8.30;;;;;;;0.05;96.00;95417.31;4839924;29;20085;-48
2022/01/10 06:18:12;;;;;;;13.10;8.23;;;;;;;0.07;97.04;95423.94;4840749;29;20413;-44
2022/01/10 06:20:39;;;;;;;12.57;7.97;;;;;;;0.08;96.41;95420.19;4841225;29;20046;-49
2022/01/10 06:23:09;;;;;;;14.02;8.82;;;;;;;-0.01;97.11;95422.66;4839812;29;20076;-46
2022/01/10 06:25:36;;;;;;;15.57;8.35;;;;;;;0.13;96.73;95430.81;4840849;29;20038;-49
2022/01/10 06:28:04;;;;;;;16.50;8.35;;;;;;;0.04;97.42;95429.03;4838605;29;20041;-49
2022/01/10 06:30:33;;;;;;;13.85;8.40;;;;;;;-0.03;97.44;95439.97;4835193;29;20397;-48
2022/01/10 06:33:01;;;;;;;12.20;7.40;;;;;;;-0.15;98.17;95442.19;4840390;29;20050;-47
2022/01/10 06:35:33;;;;;;;14.93;8.88;;;;;;;0.10;97.62;95444.66;4810504;29;20054;-46
2022/01/10 06:38:01;;;;;;;15.68;8.77;;;;;;;-0.10;98.24;95442.13;4839420;29;20053;-48
2022/01/10 06:40:28;;;;;;;15.45;8.63;;;;;;;0.03;97.87;95456.69;4839787;29;20056;-48
2022/01/10 06:42:55;;;;;;;14.02;8.52;;;;;;;0.14;97.02;95456.34;4839423;29;20058;-49
2022/01/10 06:45:24;;;;;;;15.45;8.85;;;;;;;0.00;97.73;95460.69;4851891;29;20075;-49
2022/01/10 06:47:51;;;;;;;17.05;9.55;;;;;;;0.18;97.78;95478.66;4839678;29;20640;-49
2022/01/10 06:50:19;;;;;;;15.70;9.50;;;;;;;0.17;97.46;95473.63;4839421;29;20057;-47
2022/01/10 06:52:46;;;;;;;15.02;8.77;;;;;;;0.10;98.02;95481.09;4838522;29;20057;-49
2022/01/10 06:55:13;;;;;;;15.90;9.68;;;;;;;-0.10;98.60;95474.88;4838865;29;20108;-48
2022/01/10 06:57:42;;;;;;;20.95;9.80;;;;;;;0.22;97.91;95487.66;4835109;29;20495;-49
2022/01/10 07:00:11;;;;;;;16.25;9.73;;;;;;;0.32;97.35;95491.31;4845650;29;20109;-43
2022/01/10 07:02:45;;;;;;;16.77;9.98;;;;;;;0.10;97.95;95491.72;4842081;29;20098;-45
2022/01/10 07:05:12;;;;;;;15.48;9.05;;;;;;;0.02;98.42;95501.09;4835086;29;20548;-43
2022/01/10 07:07:40;;;;;;;17.52;9.52;;;;;;;-0.15;99.28;95512.09;4853508;29;20071;-44
2022/01/10 07:10:22;;;;;;;22.92;10.07;;;;;;;-0.02;99.15;95516.03;4839718;29;20050;-48
2022/01/10 07:12:49;;;;;;;20.00;10.55;;;;;;;0.18;98.40;95513.22;4837628;29;20449;-46
2022/01/10 07:15:16;;;;;;;20.58;9.90;;;;;;;0.06;98.68;95512.78;4830959;29;20046;-48
2022/01/10 07:17:43;;;;;;;15.93;9.77;;;;;;;-0.10;99.36;95530.69;4836029;29;20048;-44
2022/01/10 07:20:12;;;;;;;17.63;9.80;;;;;;;0.01;99.81;95534.09;4836846;29;20584;-46
2022/01/10 07:22:43;;;;;;;21.08;11.93;;;;;;;-0.02;99.66;95535.44;4836633;29;20137;-46
2022/01/10 07:25:10;;;;;;;18.67;10.38;;;;;;;0.10;99.41;95537.78;4855407;29;20123;-47
2022/01/10 07:27:37;;;;;;;18.45;10.55;;;;;;;0.07;99.14;95535.66;4838948;29;20053;-46
2022/01/10 07:30:05;;;;;;;22.05;11.20;;;;;;;0.14;98.28;95546.00;4840151;29;20053;-48
2022/01/10 07:32:32;;;;;;;17.63;10.30;;;;;;;0.03;99.11;95553.22;4839330;29;20065;-47
2022/01/10 07:34:59;;;;;;;21.20;11.32;;;;;;;0.05;99.13;95551.09;4839898;29;20046;-47
2022/01/10 07:37:26;;;;;;;19.55;10.15;;;;;;;0.17;98.08;95566.72;4835992;29;20437;-44
2022/01/10 07:39:53;;;;;;;18.35;10.55;;;;;;;0.10;99.12;95571.53;4840193;29;20046;-47
2022/01/10 07:42:20;;;;;;;18.67;11.02;;;;;;;0.61;97.04;95566.69;4832386;29;20058;-47
2022/01/10 07:45:07;;;;;;;21.65;11.15;;;;;;;0.27;97.70;95579.19;4834525;29;20049;-43
2022/01/10 07:47:34;;;;;;;19.95;10.25;;;;;;;0.48;98.02;95588.59;4835603;29;20050;-44
2022/01/10 07:50:01;;;;;;;16.45;9.57;;;;;;;0.42;96.91;95595.03;4839868;29;20050;-48
2022/01/10 07:52:29;;;;;;;18.27;10.18;;;;;;;0.50;96.72;95597.13;4830950;29;20045;-44
2022/01/10 07:54:57;;;;;;;20.65;10.38;;;;;;;0.63;96.37;95596.50;4840161;29;20106;-48
2022/01/10 07:57:24;;;;;;;21.75;12.13;;;;;;;0.48;97.01;95601.91;4844719;29;20137;-47
2022/01/10 07:59:51;;;;;;;17.30;10.85;;;;;;;0.79;94.41;95605.19;4841241;29;20049;-48
2022/01/10 08:02:20;;;;;;;21.00;10.90;;;;;;;0.41;97.35;95612.06;4839959;29;20076;-47
2022/01/10 08:04:48;;;;;;;17.58;10.00;;;;;;;0.01;98.65;95610.44;4845859;29;20569;-47
2022/01/10 08:07:15;;;;;;;25.52;11.60;;;;;;;0.02;99.75;95606.69;4846595;29;20136;-47
2022/01/10 08:09:42;;;;;;;20.98;11.27;;;;;;;0.21;99.70;95619.09;4844667;29;20050;-47
2022/01/10 08:12:10;;;;;;;21.02;10.52;;;;;;;0.12;99.12;95627.94;4834468;29;20509;-46
2022/01/10 08:14:37;;;;;;;20.50;10.38;;;;;;;-0.04;100.00;95620.00;4848665;29;20538;-43
2022/01/10 08:17:04;;;;;;;24.08;11.80;;;;;;;0.06;100.00;95621.81;4845561;29;20096;-45
2022/01/10 08:19:33;;;;;;;20.80;11.02;;;;;;;0.08;100.00;95633.00;4846344;29;20046;-47
2022/01/10 08:22:02;;;;;;;23.48;11.88;;;;;;;0.10;100.00;95627.38;4844456;29;20077;-46
2022/01/10 08:24:29;;;;;;;26.92;10.95;;;;;;;0.10;99.93;95638.03;4839500;29;20054;-46
2022/01/10 08:26:56;;;;;;;20.60;11.18;;;;;;;-0.04;100.00;95640.50;4841464;29;20048;-43
2022/01/10 08:29:23;;;;;;;26.33;12.27;;;;;;;-0.09;100.00;95646.63;4845245;29;20042;-44
2022/01/10 08:31:50;;;;;;;26.30;12.25;;;;;;;0.09;100.00;95652.41;4841809;29;20046;-44
2022/01/10 08:34:17;;;;;;;24.92;11.63;;;;;;;0.04;100.00;95652.44;4844099;29;20092;-44
2022/01/10 08:36:44;;;;;;;23.40;11.98;;;;;;;0.14;100.00;95658.50;4845720;29;20054;-49
2022/01/10 08:39:11;;;;;;;22.77;12.57;;;;;;;0.22;100.00;95663.25;4846360;29;20076;-51
2022/01/10 08:41:38;;;;;;;23.88;11.63;;;;;;;0.72;97.63;95668.59;4843127;29;20129;-44
2022/01/10 08:44:06;;;;;;;23.95;11.80;;;;;;;0.27;98.04;95672.31;4845179;29;20053;-50
2022/01/10 08:46:33;;;;;;;22.23;11.50;;;;;;;0.42;98.97;95677.53;4844880;29;20121;-50
2022/01/10 08:49:01;;;;;;;28.55;12.88;;;;;;;0.61;98.12;95678.50;4843250;29;20050;-44
2022/01/10 08:51:29;;;;;;;24.08;11.93;;;;;;;0.20;98.67;95680.59;4828751;29;20047;-46
2022/01/10 08:53:57;;;;;;;23.55;11.50;;;;;;;0.33;98.15;95687.97;4839892;29;20054;-49
2022/01/10 08:56:24;;;;;;;21.48;11.95;;;;;;;0.48;98.14;95689.75;4837213;29;20045;-46
2022/01/10 08:58:51;;;;;;;26.05;12.63;;;;;;;0.58;97.61;95694.22;4846478;29;20077;-50
2022/01/10 09:01:19;;;;;;;24.02;12.98;;;;;;;0.54;97.83;95693.97;4844796;29;20038;-50
2022/01/10 09:03:46;;;;;;;27.73;12.95;;;;;;;0.40;98.91;95703.66;4846047;29;20037;-49
2022/01/10 09:06:13;;;;;;;24.42;12.35;;;;;;;0.21;99.52;95706.91;4843895;29;20385;-48
2022/01/10 09:08:44;;;;;;;22.35;11.75;;;;;;;0.13;99.97;95714.63;4845778;29;20042;-50
2022/01/10 09:11:11;;;;;;;23.48;12.73;;;;;;;0.39;99.28;95718.00;4845567;29;20046;-52
2022/01/10 09:13:38;;;;;;;18.77;10.38;;;;;;;0.24;98.23;95713.56;4845047;29;20054;-48
2022/01/10 09:16:07;;;;;;;20.10;10.27;;;;;;;0.35;97.19;95723.06;4843124;29;20520;-47
2022/01/10 09:18:34;;;;;;;18.63;10.27;;;;;;;0.73;95.96;95720.00;4833858;29;20080;-49
2022/01/10 09:21:01;;;;;;;23.85;11.40;;;;;;;1.03;95.34;95730.47;4827247;29;20081;-50
2022/01/10 09:23:28;;;;;;;22.83;11.63;;;;;;;0.95;94.42;95739.03;4842455;29;20046;-44
2022/01/10 09:25:55;;;;;;;25.55;11.43;;;;;;;0.99;95.36;95736.63;4842638;29;20046;-45
2022/01/10 09:28:23;;;;;;;22.33;11.88;;;;;;;0.78;95.47;95742.06;4842545;29;20053;-47
2022/01/10 09:30:50;;;;;;;20.92;11.57;;;;;;;0.65;96.75;95740.81;4841810;29;20136;-48
2022/01/10 09:33:17;;;;;;;22.23;11.85;;;;;;;0.42;96.82;95754.72;4842789;29;20518;-47
2022/01/10 09:35:44;;;;;;;21.25;11.43;;;;;;;0.26;97.99;95755.84;4843480;29;20510;-47
2022/01/10 09:38:11;;;;;;;23.23;11.02;;;;;;;0.36;98.00;95755.84;4841688;29;20072;-48
2022/01/10 09:40:39;;;;;;;22.27;11.73;;;;;;;0.57;96.78;95759.19;4839158;29;20404;-47
2022/01/10 09:43:18;;;;;;;23.25;12.05;;;;;;;0.70;96.97;95766.59;4841298;29;20058;-51
2022/01/10 09:45:46;;;;;;;22.35;10.82;;;;;;;0.22;97.27;95771.56;4842823;29;20482;-50
2022/01/10 09:48:13;;;;;;;23.33;11.30;;;;;;;0.63;96.25;95768.75;4842861;29;20050;-44
2022/01/10 09:50:40;;;;;;;22.17;10.98;;;;;;;0.57;96.48;95773.31;4839589;29;20038;-48
2022/01/10 09:53:09;;;;;;;22.90;12.20;;;;;;;1.31;93.73;95776.13;4832883;29;20404;-54
2022/01/10 09:55:36;;;;;;;24.00;11.90;;;;;;;0.81;94.98;95778.78;4835438;29;20053;-49
2022/01/10 09:58:03;;;;;;;23.02;11.10;;;;;;;0.45;96.81;95781.59;4837896;29;20424;-48
2022/01/10 10:00:31;;;;;;;23.55;12.02;;;;;;;0.63;96.41;95785.53;4835096;29;20050;-46
2022/01/10 10:02:58;;;;;;;20.75;12.35;;;;;;;1.39;93.62;95778.19;4842661;29;20068;-43
2022/01/10 10:05:26;;;;;;;26.45;11.88;;;;;;;1.83;91.32;95767.44;4833098;29;20458;-43
2022/01/10 10:07:53;;;;;;;23.08;12.10;;;;;;;1.19;93.99;95789.00;4841760;29;20102;-47
2022/01/10 10:10:27;;;;;;;22.92;11.40;;;;;;;0.98;94.17;95793.66;4841381;29;20041;-47
2022/01/10 10:12:54;;;;;;;23.33;12.50;;;;;;;1.21;93.14;95797.53;4842843;29;20070;-43
2022/01/10 10:15:27;;;;;;;24.25;13.38;;;;;;;0.74;94.42;95798.81;4841069;29;20122;-45
2022/01/10 10:17:54;;;;;;;19.83;11.10;;;;;;;0.59;94.79;95797.81;4838908;29;20110;-48
2022/01/10 10:20:23;;;;;;;19.92;11.23;;;;;;;0.33;95.98;95790.97;4841555;29;20484;-45
2022/01/10 10:23:15;;;;;;;20.30;11.20;;;;;;;0.68;95.75;95801.50;4840431;29;20125;-46
2022/01/10 10:25:50;;;;;;;22.38;10.02;;;;;;;0.71;95.33;95810.78;4841094;29;20070;-44
2022/01/10 10:28:17;;;;;;;21.48;11.45;;;;;;;0.76;94.66;95821.44;4825498;29;20421;-45
2022/01/10 10:30:44;;;;;;;23.95;10.88;;;;;;;0.72;95.25;95819.59;4836101;29;20509;-47
2022/01/10 10:33:23;;;;;;;24.02;10.77;;;;;;;0.58;95.69;95822.81;4840863;29;20066;-52
2022/01/10 10:36:04;;;;;;;24.30;12.88;;;;;;;0.68;95.99;95828.13;4842096;29;20079;-44
2022/01/10 10:38:31;;;;;;;23.10;11.80;;;;;;;0.93;94.73;95831.75;4837996;29;20634;-44
2022/01/10 10:41:04;;;;;;;22.13;10.48;;;;;;;0.72;95.72;95822.25;4836733;29;20137;-48
2022/01/10 10:43:35;;;;;;;22.25;11.55;;;;;;;0.82;96.05;95832.88;4826405;29;20042;-44
2022/01/10 10:46:08;;;;;;;25.60;12.32;;;;;;;0.84;95.97;95828.06;4835142;29;20064;-44
2022/01/10 10:48:37;;;;;;;24.67;11.77;;;;;;;0.64;96.23;95842.25;4835433;29;20045;-44
2022/01/10 10:51:04;;;;;;;25.27;12.38;;;;;;;0.73;95.28;95845.16;4839444;29;20077;-46
2022/01/10 10:53:32;;;;;;;22.90;10.45;;;;;;;0.54;95.60;95851.03;4841427;29;20050;-49
2022/01/10 10:56:04;;;;;;;23.08;12.18;;;;;;;0.60;96.14;95851.84;4841549;29;20580;-49
2022/01/10 10:58:39;;;;;;;21.33;11.23;;;;;;;0.68;94.69;95853.94;4840066;29;20631;-47
2022/01/10 11:01:07;;;;;;;23.08;10.93;;;;;;;0.54;95.33;95853.72;4840221;29;20446;-45
2022/01/10 11:03:34;;;;;;;23.55;11.23;;;;;;;0.73;95.24;95861.13;4841906;29;20500;-48
2022/01/10 11:06:04;;;;;;;23.20;12.10;;;;;;;1.00;94.83;95861.53;4840172;29;20080;-44
2022/01/10 11:08:35;;;;;;;21.20;11.73;;;;;;;0.98;93.79;95860.25;4841209;29;20058;-43
2022/01/10 11:11:03;;;;;;;21.30;11.02;;;;;;;0.83;94.04;95880.53;4848449;29;20072;-48
2022/01/10 11:13:31;;;;;;;26.23;12.07;;;;;;;0.56;95.23;95883.53;4836667;29;20048;-48
2022/01/10 11:15:58;;;;;;;24.25;12.45;;;;;;;0.79;95.13;95876.03;4842287;29;20069;-49
2022/01/10 11:18:26;;;;;;;23.27;12.98;;;;;;;1.13;94.60;95892.13;4841261;29;20045;-45
2022/01/10 11:20:57;;;;;;;26.05;13.00;;;;;;;0.96;94.54;95897.81;4836820;29;20041;-48
2022/01/10 11:23:43;;;;;;;23.23;12.25;;;;;;;0.92;94.69;95894.88;4839296;29;20058;-48
2022/01/10 11:26:11;;;;;;;26.65;13.20;;;;;;;1.22;92.84;95895.84;4827046;29;20046;-48
2022/01/10 11:28:54;;;;;;;22.70;12.50;;;;;;;0.62;94.36;95890.44;4839185;29;20046;-49
2022/01/10 11:31:27;;;;;;;26.40;12.50;;;;;;;1.13;93.32;95892.13;4839274;29;20133;-44
2022/01/10 11:33:55;;;;;;;;;;;;;;;1.80;90.49;95893.38;4840445;29;20046;-48
2022/01/10 11:36:27;;;;;;;23.75;12.63;;;;;;;1.79;88.94;95894.47;4841310;29;20019;-46
2022/01/10 11:39:00;;;;;;;23.45;12.80;;;;;;;1.34;91.97;95890.19;4839022;29;20050;-48
2022/01/10 11:41:30;;;;;;;22.83;11.68;;;;;;;1.59;91.04;95903.41;4838700;29;20075;-46
2022/01/10 11:44:04;;;;;;;27.60;12.43;;;;;;;1.66;88.21;95899.59;4836928;29;20141;-49
2022/01/10 11:46:49;;;;;;;24.27;13.10;;;;;;;1.22;92.10;95908.38;4835186;29;20060;-48